map of PGU home
Great Circle Mapper logo
PGU - Airport
Location
City:  Asalouyeh, Iran
Near (Alt.):Khalije Fars
Name:Persian Gulf Airport
ICAO / IATA:OIBP / PGU

Details
Type:Airport (Aerodrome, Airfield)
Use:Public/Civil
Latitude:2722'47"N (27.379589)
Longitude:5244'16"E (52.737667)
Datum:WGS 1984
Elevation:27 ft (8 m)
Runways:1
Longest:13115 × 148 ft (3997 × 45 m), paved

Time
Time Zone:UTC+3:30 (DST+4:30)
Local Time:

Weather
METAR:OIBP 161700Z 00000KT 7000 BKN200 30/17 Q1009 A2980

Related Locations
Nearby:
Farthest:GMR: 11881 mi / 19120 km
Mangareva [Totegegie], Gambier Islands, PF

Find:

   beyond  
but within

Other Information
Maps:
NOTAMs:
Links:
Sources:

  
flag of Iran   

Sectional Chart

Flight Planning
at skyvector.com

Satellite Image

Google Maps Satellite View

 

Copyright © 2004-2014 Karl L. Swartz. All rights reserved.
The Great Circle Mapper name and logo are trademarks of the Great Circle Mapper.
All other trademarks mentioned herein belong to their respective owners.
Please see credits for attibutions and further copyright information.

  Follow gcmap on Facebook Follow gcmap on Twitter

hCard Microformat

Geo Microformat